createdAt,value
2019-01-26T00:01:41.282Z,9.87
2019-01-26T00:04:09.580Z,10.87
2019-01-26T00:06:38.036Z,9.70
2019-01-26T00:09:09.318Z,11.70
2019-01-26T00:11:37.796Z,14.00
2019-01-26T00:14:06.268Z,11.40
2019-01-26T00:16:34.570Z,13.23
2019-01-26T00:19:02.927Z,13.43
2019-01-26T00:21:31.581Z,11.33
2019-01-26T00:24:00.195Z,13.00
2019-01-26T00:26:28.584Z,15.00
2019-01-26T00:28:56.934Z,9.23
2019-01-26T00:31:25.502Z,12.43
2019-01-26T00:33:54.021Z,11.90
2019-01-26T00:36:22.587Z,9.40
2019-01-26T00:38:51.149Z,12.27
2019-01-26T00:41:19.632Z,10.00
2019-01-26T00:43:48.110Z,10.87
2019-01-26T00:46:16.511Z,8.87
2019-01-26T00:48:44.865Z,6.83
2019-01-26T00:51:17.129Z,11.90
2019-01-26T00:53:43.566Z,10.50
2019-01-26T00:56:11.968Z,10.63
2019-01-26T00:58:40.346Z,10.43
2019-01-26T01:01:09.010Z,10.03
2019-01-26T01:03:37.566Z,9.83
2019-01-26T01:06:05.969Z,9.97
2019-01-26T01:08:34.551Z,10.77
2019-01-26T01:11:03.048Z,8.97
2019-01-26T01:13:31.579Z,16.37
2019-01-26T01:16:00.094Z,13.87
2019-01-26T01:18:28.608Z,11.67
2019-01-26T01:20:57.318Z,10.73
2019-01-26T01:23:26.149Z,13.77
2019-01-26T01:25:54.664Z,13.07
2019-01-26T01:28:23.116Z,9.33
2019-01-26T01:30:51.424Z,10.33
2019-01-26T01:33:19.979Z,13.87
2019-01-26T01:35:48.479Z,13.03
2019-01-26T01:38:16.872Z,12.23
2019-01-26T01:40:45.411Z,13.57
2019-01-26T01:43:13.823Z,11.43
2019-01-26T01:45:42.199Z,10.87
2019-01-26T01:48:10.575Z,14.20
2019-01-26T01:50:38.927Z,12.77
2019-01-26T01:53:08.248Z,12.57
2019-01-26T01:55:36.804Z,17.23
2019-01-26T01:58:05.388Z,14.27
2019-01-26T02:00:34.012Z,14.27
2019-01-26T02:03:02.383Z,14.17
2019-01-26T02:05:30.827Z,14.87
2019-01-26T02:07:59.410Z,15.50
2019-01-26T02:10:27.928Z,16.60
2019-01-26T02:12:56.356Z,14.87
2019-01-26T02:15:25.057Z,17.33
2019-01-26T02:17:53.467Z,13.30
2019-01-26T02:20:22.844Z,12.57
2019-01-26T02:22:51.338Z,15.90
2019-01-26T02:25:20.136Z,13.27
2019-01-26T02:27:48.724Z,14.37
2019-01-26T02:30:21.900Z,12.53
2019-01-26T02:32:50.460Z,13.67
2019-01-26T02:35:19.045Z,16.17
2019-01-26T02:37:47.456Z,17.63
2019-01-26T02:40:15.923Z,15.60
2019-01-26T02:42:44.387Z,13.57
2019-01-26T02:45:13.303Z,14.80
2019-01-26T02:47:41.699Z,13.40
2019-01-26T02:50:15.028Z,14.40
2019-01-26T02:52:43.527Z,17.07
2019-01-26T02:55:14.218Z,12.90
2019-01-26T02:57:42.740Z,16.30
2019-01-26T03:00:14.906Z,12.00
2019-01-26T03:02:43.488Z,13.13
2019-01-26T03:05:12.481Z,17.00
2019-01-26T03:07:41.064Z,15.47
2019-01-26T03:10:11.015Z,19.47
2019-01-26T03:12:39.483Z,14.80
2019-01-26T03:15:10.039Z,13.30
2019-01-26T03:17:38.572Z,14.43
2019-01-26T03:20:08.928Z,16.93
2019-01-26T03:22:37.373Z,15.20
2019-01-26T03:25:06.759Z,18.73
2019-01-26T03:27:35.256Z,13.47
2019-01-26T03:30:05.820Z,12.67
2019-01-26T03:32:34.272Z,18.87
2019-01-26T03:35:02.864Z,16.17
2019-01-26T03:37:31.235Z,15.47
2019-01-26T03:39:59.547Z,13.13
2019-01-26T03:42:28.026Z,12.50
2019-01-26T03:44:56.565Z,12.80
2019-01-26T03:47:25.081Z,14.50
2019-01-26T03:49:53.728Z,13.13
2019-01-26T03:52:22.312Z,11.07
2019-01-26T03:54:50.801Z,13.90
2019-01-26T03:57:20.261Z,12.23
2019-01-26T03:59:48.912Z,12.90
2019-01-26T04:02:17.180Z,13.23
2019-01-26T04:04:45.582Z,15.33
2019-01-26T04:07:14.048Z,11.70
2019-01-26T04:09:42.598Z,11.97
2019-01-26T04:12:11.007Z,14.17
2019-01-26T04:14:39.387Z,13.90
2019-01-26T04:17:07.767Z,16.33
2019-01-26T04:19:36.315Z,13.43
2019-01-26T04:22:04.931Z,19.10
2019-01-26T04:24:33.315Z,14.70
2019-01-26T04:27:01.774Z,16.13
2019-01-26T04:29:30.242Z,14.10
2019-01-26T04:31:58.819Z,13.77
2019-01-26T04:34:27.460Z,14.37
2019-01-26T04:36:55.719Z,12.23
2019-01-26T04:39:24.157Z,15.47
2019-01-26T04:41:52.673Z,16.80
2019-01-26T04:44:21.122Z,17.10
2019-01-26T04:46:49.519Z,14.63
2019-01-26T04:49:17.902Z,16.77
2019-01-26T04:51:46.354Z,17.30
2019-01-26T04:54:14.939Z,18.70
2019-01-26T04:56:43.417Z,15.63
2019-01-26T04:59:13.048Z,15.80
2019-01-26T05:01:41.334Z,13.77
2019-01-26T05:04:09.677Z,18.30
2019-01-26T05:06:38.262Z,16.87
2019-01-26T05:09:08.726Z,14.57
2019-01-26T05:11:37.268Z,16.97
2019-01-26T05:14:05.756Z,17.20
2019-01-26T05:16:34.230Z,20.27
2019-01-26T05:19:02.716Z,21.07
2019-01-26T05:21:31.125Z,18.47
2019-01-26T05:23:59.673Z,18.67
2019-01-26T05:26:28.192Z,16.97
2019-01-26T05:28:56.567Z,16.47
2019-01-26T05:31:24.832Z,15.57
2019-01-26T05:33:53.592Z,17.83
2019-01-26T05:36:22.015Z,15.93
2019-01-26T05:38:50.372Z,18.37
2019-01-26T05:41:18.846Z,17.03
2019-01-26T05:43:47.137Z,15.73
2019-01-26T05:46:15.689Z,16.07
2019-01-26T05:48:44.204Z,16.40
2019-01-26T05:51:12.540Z,16.70
2019-01-26T05:53:41.133Z,18.57
2019-01-26T05:56:09.645Z,18.43
2019-01-26T05:58:38.006Z,21.03
2019-01-26T06:01:08.626Z,19.23
2019-01-26T06:03:37.131Z,21.43
2019-01-26T06:06:05.534Z,17.03
2019-01-26T06:08:33.781Z,18.20
2019-01-26T06:11:02.127Z,16.50
2019-01-26T06:13:30.747Z,17.63
2019-01-26T06:15:59.124Z,16.60
2019-01-26T06:18:27.331Z,15.20
2019-01-26T06:20:55.684Z,20.07
2019-01-26T06:23:24.039Z,16.87
2019-01-26T06:25:52.805Z,17.30
2019-01-26T06:28:21.221Z,16.57
2019-01-26T06:30:49.607Z,16.80
2019-01-26T06:33:18.055Z,16.17
2019-01-26T06:35:46.624Z,20.40
2019-01-26T06:38:15.140Z,18.37
2019-01-26T06:40:43.485Z,17.03
2019-01-26T06:43:11.783Z,17.13
2019-01-26T06:45:40.340Z,19.87
2019-01-26T06:48:08.823Z,19.20
2019-01-26T06:50:37.226Z,19.77
2019-01-26T06:53:05.501Z,19.53
2019-01-26T06:55:34.070Z,23.87
2019-01-26T06:58:02.643Z,26.63
2019-01-26T07:00:31.491Z,25.93
2019-01-26T07:02:59.990Z,23.13
2019-01-26T07:05:59.722Z,27.57
2019-01-26T07:08:28.127Z,26.30
2019-01-26T07:10:56.522Z,26.13
2019-01-26T07:13:25.061Z,21.73
2019-01-26T07:15:55.384Z,27.13
2019-01-26T07:18:23.999Z,26.07
2019-01-26T07:20:52.383Z,26.03
2019-01-26T07:23:21.006Z,22.57
2019-01-26T07:25:49.220Z,22.87
2019-01-26T07:28:17.480Z,24.27
2019-01-26T07:30:45.991Z,25.23
2019-01-26T07:33:14.359Z,25.17
2019-01-26T07:35:42.648Z,31.50
2019-01-26T07:38:13.623Z,25.27
2019-01-26T07:40:41.416Z,25.23
2019-01-26T07:43:10.334Z,20.23
2019-01-26T07:45:39.869Z,22.50
2019-01-26T07:48:08.278Z,20.83
2019-01-26T07:50:36.770Z,26.77
2019-01-26T07:53:05.362Z,28.53
2019-01-26T07:55:33.768Z,23.20
2019-01-26T07:58:02.211Z,23.00
2019-01-26T08:00:30.692Z,21.03
2019-01-26T08:02:59.215Z,28.30
2019-01-26T08:05:27.755Z,21.20
2019-01-26T08:07:56.728Z,18.03
2019-01-26T08:10:25.570Z,23.07
2019-01-26T08:12:54.035Z,21.73
2019-01-26T08:15:28.028Z,23.00
2019-01-26T08:17:56.305Z,21.90
2019-01-26T08:20:24.986Z,24.60
2019-01-26T08:22:53.499Z,31.37
2019-01-26T08:25:21.893Z,21.00
2019-01-26T08:27:50.249Z,25.17
2019-01-26T08:30:20.339Z,21.47
2019-01-26T08:32:49.039Z,25.17
2019-01-26T08:35:17.403Z,23.87
2019-01-26T08:37:45.893Z,23.57
2019-01-26T08:40:15.051Z,20.87
2019-01-26T08:42:43.701Z,21.97
2019-01-26T08:45:13.307Z,21.93
2019-01-26T08:47:41.678Z,24.97
2019-01-26T08:50:15.649Z,28.63
2019-01-26T08:52:44.059Z,28.20
2019-01-26T08:55:18.133Z,25.57
2019-01-26T08:57:43.184Z,26.03
2019-01-26T09:00:18.168Z,26.17
2019-01-26T09:03:08.882Z,22.73
2019-01-26T09:06:07.062Z,28.40
2019-01-26T09:08:35.468Z,32.10
2019-01-26T09:11:04.771Z,30.70
2019-01-26T09:13:33.034Z,25.10
2019-01-26T09:16:01.726Z,26.57
2019-01-26T09:18:30.112Z,26.13
2019-01-26T09:20:58.400Z,31.00
2019-01-26T09:23:27.038Z,33.80
2019-01-26T09:25:55.444Z,26.87
2019-01-26T09:28:23.816Z,28.77
2019-01-26T09:30:52.057Z,30.23
2019-01-26T09:33:20.587Z,26.57
2019-01-26T09:35:48.706Z,22.83
2019-01-26T09:38:17.053Z,22.43
2019-01-26T09:40:45.405Z,21.13
2019-01-26T09:43:13.987Z,21.23
2019-01-26T09:45:42.761Z,22.00
2019-01-26T09:48:11.261Z,23.67
2019-01-26T09:50:39.627Z,19.83
2019-01-26T09:53:08.288Z,20.77
2019-01-26T09:55:36.804Z,23.87
2019-01-26T09:58:05.370Z,25.03
2019-01-26T10:00:33.682Z,22.47
2019-01-26T10:03:02.210Z,20.93
2019-01-26T10:05:30.721Z,24.17
2019-01-26T10:07:59.225Z,27.10
2019-01-26T10:10:27.752Z,26.47
2019-01-26T10:12:56.233Z,24.53
2019-01-26T10:15:44.172Z,24.00
2019-01-26T10:18:12.650Z,23.27
2019-01-26T10:20:41.161Z,25.73
2019-01-26T10:23:09.712Z,26.77
2019-01-26T10:25:38.117Z,24.33
2019-01-26T10:28:06.907Z,23.73
2019-01-26T10:30:46.317Z,28.40
2019-01-26T10:33:14.610Z,25.00
2019-01-26T10:35:51.764Z,25.77
2019-01-26T10:38:20.372Z,28.23
2019-01-26T10:41:08.194Z,23.20
2019-01-26T10:43:40.922Z,21.37
2019-01-26T10:46:09.180Z,21.10
2019-01-26T10:48:37.628Z,17.90
2019-01-26T10:51:05.947Z,18.70
2019-01-26T10:53:34.195Z,18.80
2019-01-26T10:56:02.762Z,19.67
2019-01-26T10:58:31.172Z,20.83
2019-01-26T11:00:59.725Z,17.87
2019-01-26T11:03:28.304Z,18.57
2019-01-26T11:05:58.293Z,17.60
2019-01-26T11:08:26.835Z,16.57
2019-01-26T11:10:55.400Z,20.97
2019-01-26T11:13:23.751Z,16.97
2019-01-26T11:15:52.281Z,23.73
2019-01-26T11:18:20.823Z,17.97
2019-01-26T11:20:49.511Z,17.30
2019-01-26T11:23:17.930Z,23.30
2019-01-26T11:25:46.572Z,19.07
2019-01-26T11:28:14.976Z,16.23
2019-01-26T11:30:43.536Z,17.77
2019-01-26T11:33:12.145Z,20.47
2019-01-26T11:35:40.806Z,19.23
2019-01-26T11:38:09.395Z,19.43
2019-01-26T11:40:37.967Z,15.63
2019-01-26T11:43:06.368Z,18.73
2019-01-26T11:46:09.175Z,19.57
2019-01-26T11:48:40.989Z,20.23
2019-01-26T11:51:31.544Z,16.27
2019-01-26T11:53:59.807Z,19.30
2019-01-26T11:57:02.958Z,16.90
2019-01-26T11:59:31.362Z,20.27
2019-01-26T12:02:17.327Z,18.63
2019-01-26T12:05:14.171Z,18.90
2019-01-26T12:07:42.670Z,14.00
2019-01-26T12:10:11.936Z,19.67
2019-01-26T12:12:40.633Z,17.50
2019-01-26T12:15:11.895Z,18.17
2019-01-26T12:17:40.185Z,16.30
2019-01-26T12:20:11.131Z,18.03
2019-01-26T12:22:39.680Z,12.20
2019-01-26T12:25:08.159Z,15.53
2019-01-26T12:27:36.636Z,14.10
2019-01-26T12:30:05.665Z,15.70
2019-01-26T12:32:34.052Z,14.57
2019-01-26T12:35:02.939Z,12.87
2019-01-26T12:37:31.411Z,13.60
2019-01-26T12:39:59.759Z,14.33
2019-01-26T12:42:28.339Z,14.07
2019-01-26T12:44:56.733Z,16.13
2019-01-26T12:47:25.043Z,11.13
2019-01-26T12:49:53.576Z,14.73
2019-01-26T12:52:22.094Z,13.43
2019-01-26T12:54:50.199Z,12.40
2019-01-26T12:57:18.535Z,17.73
2019-01-26T12:59:46.999Z,17.30
2019-01-26T13:02:15.468Z,17.27
2019-01-26T13:04:43.845Z,15.83
2019-01-26T13:07:12.127Z,15.77
2019-01-26T13:09:40.401Z,15.20
2019-01-26T13:12:08.795Z,20.70
2019-01-26T13:14:37.152Z,20.83
2019-01-26T13:17:05.661Z,17.73
2019-01-26T13:19:36.928Z,17.87
2019-01-26T13:22:04.738Z,17.87
2019-01-26T13:24:33.290Z,23.27
2019-01-26T13:27:01.524Z,19.93
2019-01-26T13:29:29.886Z,15.13
2019-01-26T13:31:58.255Z,11.63
2019-01-26T13:34:26.675Z,10.97
2019-01-26T13:36:55.215Z,12.50
2019-01-26T13:39:23.633Z,10.50
2019-01-26T13:41:51.975Z,10.87
2019-01-26T13:44:20.450Z,12.27
2019-01-26T13:46:48.932Z,10.87
2019-01-26T13:49:17.275Z,12.60
2019-01-26T13:51:45.584Z,11.57
2019-01-26T13:54:14.168Z,13.70
2019-01-26T13:56:42.483Z,14.33
2019-01-26T13:59:10.812Z,16.70
2019-01-26T14:01:38.745Z,17.87
2019-01-26T14:04:07.087Z,15.00
2019-01-26T14:06:35.648Z,13.97
2019-01-26T14:09:07.321Z,19.57
2019-01-26T14:11:35.517Z,17.37
2019-01-26T14:14:04.015Z,17.43
2019-01-26T14:16:32.538Z,14.87
2019-01-26T14:19:01.071Z,14.53
2019-01-26T14:21:29.491Z,19.63
2019-01-26T14:23:57.796Z,14.73
2019-01-26T14:26:26.256Z,19.90
2019-01-26T14:28:54.855Z,13.80
2019-01-26T14:31:23.323Z,17.10
2019-01-26T14:33:51.806Z,18.27
2019-01-26T14:36:20.180Z,17.33
2019-01-26T14:38:48.581Z,17.93
2019-01-26T14:41:16.866Z,15.17
2019-01-26T14:43:45.351Z,13.93
2019-01-26T14:46:13.894Z,12.70
2019-01-26T14:48:42.376Z,13.97
2019-01-26T14:51:10.895Z,17.77
2019-01-26T14:53:39.164Z,27.30
2019-01-26T14:56:07.817Z,15.17
2019-01-26T14:58:36.399Z,15.13
2019-01-26T15:01:05.016Z,13.90
2019-01-26T15:03:33.567Z,15.20
2019-01-26T15:06:02.069Z,14.03
2019-01-26T15:08:30.441Z,14.63
2019-01-26T15:10:59.109Z,16.53
2019-01-26T15:13:27.722Z,14.77
2019-01-26T15:15:56.000Z,14.13
2019-01-26T15:18:24.360Z,15.53
2019-01-26T15:20:54.807Z,15.10
2019-01-26T15:23:24.843Z,13.47
2019-01-26T15:25:58.273Z,24.47
2019-01-26T15:28:27.676Z,17.27
2019-01-26T15:31:00.609Z,17.13
2019-01-26T15:33:29.809Z,15.57
2019-01-26T15:35:59.755Z,15.47
2019-01-26T15:38:28.812Z,13.33
2019-01-26T15:40:58.085Z,15.13
2019-01-26T15:43:27.168Z,12.57
2019-01-26T15:45:56.455Z,12.37
2019-01-26T15:48:24.879Z,14.67
2019-01-26T15:50:53.842Z,16.13
2019-01-26T15:53:22.357Z,15.03
2019-01-26T15:55:50.719Z,15.87
2019-01-26T15:58:19.008Z,17.23
2019-01-26T16:00:47.487Z,15.47
2019-01-26T16:03:16.036Z,13.80
2019-01-26T16:05:44.312Z,16.93
2019-01-26T16:08:12.997Z,14.17
2019-01-26T16:10:41.281Z,15.13
2019-01-26T16:13:09.860Z,14.60
2019-01-26T16:15:39.179Z,16.63
2019-01-26T16:18:10.374Z,10.90
2019-01-26T16:20:38.830Z,14.57
2019-01-26T16:23:09.659Z,10.57
2019-01-26T16:25:37.504Z,13.83
2019-01-26T16:28:05.876Z,15.50
2019-01-26T16:30:34.552Z,11.93
2019-01-26T16:33:03.159Z,11.83
2019-01-26T16:35:31.642Z,12.37
2019-01-26T16:38:00.538Z,11.30
2019-01-26T16:40:31.451Z,11.27
2019-01-26T16:43:00.024Z,11.53
2019-01-26T16:45:30.661Z,8.03
2019-01-26T16:47:59.129Z,10.13
2019-01-26T16:50:28.477Z,11.63
2019-01-26T16:52:56.991Z,10.43
2019-01-26T16:55:25.313Z,13.97
2019-01-26T16:57:53.596Z,10.23
2019-01-26T17:00:40.017Z,11.07
2019-01-26T17:03:08.483Z,11.83
2019-01-26T17:05:37.084Z,12.07
2019-01-26T17:08:06.138Z,11.87
2019-01-26T17:10:34.756Z,12.63
2019-01-26T17:13:03.222Z,10.93
2019-01-26T17:15:31.703Z,14.43
2019-01-26T17:18:00.092Z,12.20
2019-01-26T17:20:34.926Z,14.20
2019-01-26T17:22:59.974Z,12.57
2019-01-26T17:25:28.618Z,12.17
2019-01-26T17:27:56.991Z,12.27
2019-01-26T17:30:27.888Z,10.27
2019-01-26T17:32:56.178Z,11.40
2019-01-26T17:35:24.650Z,13.57
2019-01-26T17:37:59.664Z,13.70
2019-01-26T17:40:28.065Z,12.97
2019-01-26T17:42:56.357Z,11.33
2019-01-26T17:45:24.811Z,12.90
2019-01-26T17:47:53.584Z,11.70
2019-01-26T17:50:23.140Z,13.40
2019-01-26T17:52:51.832Z,10.53
2019-01-26T17:55:20.647Z,12.50
2019-01-26T17:57:48.984Z,12.10
2019-01-26T18:00:24.762Z,13.40
2019-01-26T18:02:53.390Z,11.73
2019-01-26T18:05:21.685Z,15.00
2019-01-26T18:07:50.132Z,14.67
2019-01-26T18:10:19.361Z,14.90
2019-01-26T18:12:47.640Z,16.27
2019-01-26T18:15:16.392Z,14.20
2019-01-26T18:17:44.783Z,11.67
2019-01-26T18:20:16.528Z,10.73
2019-01-26T18:22:45.315Z,10.83
2019-01-26T18:25:13.798Z,14.90
2019-01-26T18:27:42.379Z,11.67
2019-01-26T18:30:13.444Z,10.87
2019-01-26T18:32:41.634Z,17.17
2019-01-26T18:35:10.845Z,12.10
2019-01-26T18:37:39.405Z,12.77
2019-01-26T18:40:11.089Z,11.27
2019-01-26T18:42:39.523Z,15.33
2019-01-26T18:45:09.437Z,11.97
2019-01-26T18:47:37.725Z,13.97
2019-01-26T18:50:08.391Z,11.63
2019-01-26T18:52:36.952Z,12.47
2019-01-26T18:55:05.848Z,17.17
2019-01-26T18:57:34.117Z,20.20
2019-01-26T19:00:02.761Z,15.17
2019-01-26T19:02:31.346Z,14.80
2019-01-26T19:05:03.064Z,11.70
2019-01-26T19:07:31.580Z,18.40
2019-01-26T19:10:00.086Z,13.03
2019-01-26T19:12:28.561Z,14.93
2019-01-26T19:14:57.083Z,17.37
2019-01-26T19:17:25.501Z,14.20
2019-01-26T19:19:53.983Z,18.77
2019-01-26T19:22:22.595Z,17.37
2019-01-26T19:24:51.525Z,17.83
2019-01-26T19:27:20.231Z,16.63
2019-01-26T19:29:49.203Z,21.60
2019-01-26T19:32:18.232Z,18.63
2019-01-26T19:34:47.425Z,17.00
2019-01-26T19:37:16.856Z,19.97
2019-01-26T19:39:45.836Z,13.63
2019-01-26T19:42:15.687Z,15.60
2019-01-26T19:44:46.877Z,16.27
2019-01-26T19:47:16.442Z,14.17
2019-01-26T19:49:46.204Z,16.43
2019-01-26T19:52:16.710Z,14.10
2019-01-26T19:54:47.020Z,14.60
2019-01-26T19:57:17.176Z,15.60
2019-01-26T19:59:47.487Z,16.33
2019-01-26T20:02:25.429Z,12.97
2019-01-26T20:04:56.405Z,15.00
2019-01-26T20:07:27.517Z,14.97
2019-01-26T20:09:58.521Z,17.53
2019-01-26T20:12:29.333Z,17.60
2019-01-26T20:15:02.032Z,17.60
2019-01-26T20:17:33.073Z,16.43
2019-01-26T20:20:05.340Z,17.43
2019-01-26T20:22:36.382Z,17.83
2019-01-26T20:25:09.985Z,16.07
2019-01-26T20:27:40.687Z,15.07
2019-01-26T20:30:26.463Z,15.50
2019-01-26T20:32:57.393Z,24.03
2019-01-26T20:35:29.501Z,13.53
2019-01-26T20:38:01.100Z,15.03
2019-01-26T20:40:33.114Z,15.03
2019-01-26T20:43:04.152Z,15.63
2019-01-26T20:45:35.955Z,13.23
2019-01-26T20:48:08.607Z,14.73
2019-01-26T20:50:42.472Z,16.00
2019-01-26T20:53:15.029Z,14.70
2019-01-26T20:55:47.758Z,15.77
2019-01-26T20:58:18.756Z,16.10
2019-01-26T21:00:50.221Z,17.70
2019-01-26T21:03:22.948Z,17.70
2019-01-26T21:05:55.225Z,14.20
2019-01-26T21:08:26.380Z,12.80
2019-01-26T21:10:57.644Z,13.87
2019-01-26T21:13:31.039Z,17.60
2019-01-26T21:16:24.264Z,13.43
2019-01-26T21:18:55.307Z,14.77
2019-01-26T21:21:31.885Z,17.17
2019-01-26T21:24:01.643Z,16.60
2019-01-26T21:26:33.339Z,18.90
2019-01-26T21:29:04.425Z,17.03
2019-01-26T21:31:35.022Z,16.93
2019-01-26T21:34:05.819Z,20.20
2019-01-26T21:36:35.699Z,18.47
2019-01-26T21:39:07.428Z,17.43
2019-01-26T21:41:35.762Z,20.67
2019-01-26T21:44:04.917Z,14.63
2019-01-26T21:46:33.440Z,17.63
2019-01-26T21:49:01.921Z,15.07
2019-01-26T21:51:30.229Z,17.37
2019-01-26T21:53:58.884Z,18.37
2019-01-26T21:56:27.469Z,17.27
2019-01-26T21:58:55.878Z,17.67
2019-01-26T22:01:24.360Z,17.53
2019-01-26T22:03:52.736Z,16.63
2019-01-26T22:06:21.297Z,18.33
2019-01-26T22:08:49.867Z,15.20
2019-01-26T22:11:18.269Z,17.47
2019-01-26T22:13:46.624Z,18.87
2019-01-26T22:16:14.908Z,18.27
2019-01-26T22:18:43.379Z,21.40
2019-01-26T22:21:11.859Z,16.37
2019-01-26T22:23:40.441Z,16.50
2019-01-26T22:26:08.834Z,17.27
2019-01-26T22:28:37.226Z,21.87
2019-01-26T22:31:05.821Z,22.43
2019-01-26T22:33:34.088Z,20.37
2019-01-26T22:36:02.537Z,18.13
2019-01-26T22:38:31.222Z,20.03
2019-01-26T22:40:59.804Z,23.63
2019-01-26T22:43:28.224Z,20.10
2019-01-26T22:45:56.843Z,20.87
2019-01-26T22:48:25.172Z,18.10
2019-01-26T22:50:53.725Z,31.60
2019-01-26T22:53:22.309Z,29.43
2019-01-26T22:55:50.686Z,26.00
2019-01-26T22:58:19.304Z,23.13
2019-01-26T23:01:27.001Z,20.53
2019-01-26T23:04:24.837Z,19.27
2019-01-26T23:07:38.271Z,22.80
2019-01-26T23:10:45.666Z,24.07
2019-01-26T23:13:56.744Z,21.07
2019-01-26T23:17:02.291Z,21.83
2019-01-26T23:20:11.222Z,20.03
2019-01-26T23:23:24.250Z,21.17
2019-01-26T23:26:36.760Z,23.93
2019-01-26T23:29:35.241Z,19.60
2019-01-26T23:32:03.824Z,21.13
2019-01-26T23:34:32.129Z,24.03
2019-01-26T23:37:00.614Z,20.87
2019-01-26T23:39:29.074Z,24.00
2019-01-26T23:41:57.373Z,21.57
2019-01-26T23:44:25.759Z,20.43
2019-01-26T23:46:54.153Z,25.93
2019-01-26T23:49:22.675Z,22.63
2019-01-26T23:51:50.982Z,25.07
2019-01-26T23:54:19.534Z,30.03
2019-01-26T23:56:47.943Z,24.23
2019-01-26T23:59:16.225Z,25.40
